Startpagina
METAR-TAF:

METAR-TAF

Vliegvelden :

Luchthaven Dakar

Dakar, Senegal

breedte: 14-44N, lengte: 017-30W, hoogte: 27 m

Actueel weer

Dit bericht is 3 uur en het 30 minuten geleden gemaakt, om 16:00 UTC
Wind 6 kt uit het zuidoosten
Temperatuur 32°C
Vochtigheid 63%
Druk 1011 hPa
Zicht 10 km of meer
Weinig wolken op 1600 ft, Stapelwolken.
Weinig wolken op 3000 ft, Cumulonimbus.

METAR: GOOY 191600Z 14006KT 9999 FEW016TCU FEW030CB 32/24 Q1011

Tijdstip: 19:30 (19:30 UTC)

Verwachting

Dit bericht is 2 uur en het 0 minuten geleden gemaakt, om 17:30 UTC
Verwachting geldig van 19 om 18 UTC tot 20 om 24 UTC
Wind 8 kt uit het westen
Zicht 10 km of meer
Verspreide wolken op 1400 ft
Kans 40% :
Tijdelijke
van 19 om 20 UTC tot 19 om 24 UTC
Zicht: 4000 m
Gebroken wolken op 1000 ft
Weinig wolken op 2500 ft, Cumulonimbus.
onweer, regen

TAF: GOOY 191730Z 1918/2024 28008KT 9999 SCT014 PROB40 TEMPO 1920/1924 4000 TSRA BKN010 FEW025CB

Waarnemingen en weersverwachtingen van meer dan 4000 vliegvelden (METAR en TAF).

De beschikbare stations zijn de gele en rode punten op de kaart.

Ga met uw muis naar het station om de naam te zien.

Klik dan om waarnemingen en weersverwachtingen te zien.

kaart wijzigen: klik op de groene knoppen met een zwart kruis om in te zoomen, op de groene knop met een streepje om uit te zoomen of op de groene pijlen voor aangrenzende kaarten.


METAR-TAF: